Time;durP1;ratioP1;P1;durP2;ratioP2;P2;SDS_P1;SDS_P2;PMS_P1;PMS_P2;Temp;Humidity;BMP_temperature;BMP_pressure;BME280_temperature;BME280_humidity;BME280_pressure;Samples;Min_cycle;Max_cycle;Signal;HPM_P1;HPM_P2
2022/04/16 00:02:01;;;;;;;14.60;11.30;;;8.70;99.90;;;;;;5075392;28;20077;-75
2022/04/16 00:04:30;;;;;;;16.48;11.13;;;8.70;99.90;;;;;;5075428;28;20040;-76
2022/04/16 00:06:56;;;;;;;15.88;11.93;;;8.70;99.90;;;;;;5075456;28;20043;-75
2022/04/16 00:09:23;;;;;;;17.40;12.73;;;8.70;99.90;;;;;;5075312;28;20076;-75
2022/04/16 00:11:48;;;;;;;19.30;12.10;;;8.60;99.90;;;;;;5075281;28;20044;-75
2022/04/16 00:14:15;;;;;;;16.23;12.07;;;8.60;99.90;;;;;;5075263;28;20036;-75
2022/04/16 00:16:41;;;;;;;18.65;12.77;;;8.50;99.90;;;;;;5075301;28;20055;-75
2022/04/16 00:19:09;;;;;;;18.40;12.23;;;8.50;99.90;;;;;;5075082;28;20044;-75
2022/04/16 00:21:35;;;;;;;16.08;12.52;;;8.50;99.90;;;;;;5075246;28;20497;-75
2022/04/16 00:24:01;;;;;;;17.48;13.38;;;8.50;99.90;;;;;;5058607;28;20047;-75
2022/04/16 00:26:27;;;;;;;19.60;12.40;;;8.40;99.90;;;;;;5058358;28;20601;-75
2022/04/16 00:28:53;;;;;;;17.38;12.82;;;8.40;99.90;;;;;;5075155;28;20039;-75
2022/04/16 00:31:19;;;;;;;19.98;12.98;;;8.40;99.90;;;;;;5075380;28;20066;-76
2022/04/16 00:33:46;;;;;;;18.75;12.65;;;8.40;99.90;;;;;;5075076;28;20047;-76
2022/04/16 00:36:14;;;;;;;19.83;13.07;;;8.30;99.90;;;;;;5075123;28;20040;-76
2022/04/16 00:38:40;;;;;;;16.80;13.18;;;8.40;99.90;;;;;;5074977;28;20074;-75
2022/04/16 00:41:06;;;;;;;20.83;13.38;;;8.30;99.90;;;;;;5075334;28;20075;-75
2022/04/16 00:43:33;;;;;;;17.58;13.43;;;8.30;99.90;;;;;;5074891;28;20040;-75
2022/04/16 00:45:59;;;;;;;19.05;13.73;;;8.30;99.90;;;;;;5075270;28;20035;-75
2022/04/16 00:48:25;;;;;;;17.27;13.38;;;8.30;99.90;;;;;;5074852;28;20070;-75
2022/04/16 00:50:52;;;;;;;19.00;14.52;;;8.20;99.90;;;;;;5074898;28;20040;-75
2022/04/16 00:53:18;;;;;;;21.08;14.20;;;8.20;99.90;;;;;;5075191;28;20039;-75
2022/04/16 00:55:44;;;;;;;18.23;13.20;;;8.20;99.90;;;;;;5074821;28;20115;-75
2022/04/16 00:58:10;;;;;;;18.48;13.75;;;8.20;99.90;;;;;;5074878;28;20039;-75
2022/04/16 01:00:36;;;;;;;19.52;13.75;;;8.20;99.90;;;;;;5074887;28;20544;-75
2022/04/16 01:03:02;;;;;;;18.52;14.25;;;8.10;99.90;;;;;;5058393;28;20133;-75
2022/04/16 01:05:28;;;;;;;18.30;13.88;;;8.10;99.90;;;;;;5075361;28;20033;-75
2022/04/16 01:07:57;;;;;;;18.88;14.07;;;8.10;99.90;;;;;;5058139;28;20051;-75
2022/04/16 01:10:28;;;;;;;20.45;15.05;;;8.10;99.90;;;;;;5074919;28;20043;-75
2022/04/16 01:12:56;;;;;;;20.98;15.48;;;8.00;99.90;;;;;;5061179;28;20047;-75
2022/04/16 01:15:22;;;;;;;23.63;15.70;;;8.00;99.90;;;;;;5078539;28;20118;-75
2022/04/16 01:17:48;;;;;;;22.33;15.75;;;8.00;99.90;;;;;;5061719;28;20043;-75
2022/04/16 01:20:16;;;;;;;23.10;16.05;;;8.00;99.90;;;;;;5078587;28;20036;-75
2022/04/16 01:22:42;;;;;;;21.13;16.10;;;7.90;99.90;;;;;;5078613;28;20039;-75
2022/04/16 01:25:08;;;;;;;21.05;16.88;;;7.90;99.90;;;;;;5078377;28;20036;-75
2022/04/16 01:27:39;;;;;;;21.00;16.23;;;7.90;99.90;;;;;;5061633;28;20043;-75
2022/04/16 01:30:05;;;;;;;22.20;16.77;;;7.90;99.90;;;;;;5061824;28;20039;-75
2022/04/16 01:32:33;;;;;;;21.30;16.40;;;7.90;99.90;;;;;;5061546;28;20039;-75
2022/04/16 01:35:00;;;;;;;21.92;16.70;;;7.90;99.90;;;;;;5078193;28;20126;-76
2022/04/16 01:37:31;;;;;;;22.42;16.45;;;7.80;99.90;;;;;;5061436;28;20131;-76
2022/04/16 01:39:58;;;;;;;24.02;16.27;;;7.90;99.90;;;;;;5061807;28;20131;-75
2022/04/16 01:42:24;;;;;;;22.42;16.55;;;7.80;99.90;;;;;;5078321;28;20036;-75
2022/04/16 01:44:51;;;;;;;22.30;17.25;;;7.80;99.90;;;;;;5061605;28;20036;-76
2022/04/16 01:47:17;;;;;;;20.70;16.08;;;7.80;99.90;;;;;;5077943;28;20122;-76
2022/04/16 01:49:43;;;;;;;20.25;16.58;;;7.80;99.90;;;;;;5061336;28;20126;-76
2022/04/16 01:52:09;;;;;;;23.15;16.52;;;7.70;99.90;;;;;;5078162;28;20101;-75
2022/04/16 01:54:36;;;;;;;22.52;18.05;;;7.70;99.90;;;;;;5077840;28;20051;-75
2022/04/16 01:57:01;;;;;;;25.60;15.85;;;7.70;99.90;;;;;;5078016;28;20117;-75
2022/04/16 01:59:29;;;;;;;20.80;17.25;;;7.70;99.90;;;;;;5077639;28;20476;-75
2022/04/16 02:01:56;;;;;;;23.88;16.92;;;7.70;99.90;;;;;;5077650;28;20063;-75
2022/04/16 02:04:22;;;;;;;22.80;16.40;;;7.60;99.90;;;;;;5077676;28;20043;-75
2022/04/16 02:06:50;;;;;;;22.05;16.65;;;7.60;99.90;;;;;;5061180;28;20418;-75
2022/04/16 02:09:17;;;;;;;23.60;16.67;;;7.60;99.90;;;;;;5077513;28;20040;-75
2022/04/16 02:11:43;;;;;;;24.17;16.98;;;7.60;99.90;;;;;;5077491;28;20043;-75
2022/04/16 02:14:09;;;;;;;20.63;16.17;;;7.60;99.90;;;;;;5077458;28;20500;-75
2022/04/16 02:16:34;;;;;;;20.92;16.52;;;7.60;99.90;;;;;;5077545;28;20051;-75
2022/04/16 02:19:00;;;;;;;22.05;16.65;;;7.60;99.90;;;;;;5060540;28;20040;-75
2022/04/16 02:21:27;;;;;;;23.45;16.20;;;7.60;99.90;;;;;;5077599;28;20036;-75
2022/04/16 02:23:52;;;;;;;24.42;17.13;;;7.50;99.90;;;;;;5076145;28;20036;-75
2022/04/16 02:26:20;;;;;;;19.90;16.48;;;7.50;99.90;;;;;;5077508;28;20038;-75
2022/04/16 02:28:52;;;;;;;20.85;16.45;;;7.50;99.90;;;;;;5077065;28;20453;-75
2022/04/16 02:31:17;;;;;;;22.95;16.90;;;7.50;99.90;;;;;;5077368;28;20089;-76
2022/04/16 02:33:43;;;;;;;22.83;16.70;;;7.50;99.90;;;;;;5077047;28;20036;-76
2022/04/16 02:36:11;;;;;;;20.80;16.65;;;7.40;99.90;;;;;;5077417;28;20039;-76
2022/04/16 02:38:38;;;;;;;21.60;17.42;;;7.40;99.90;;;;;;5077054;28;20113;-75
2022/04/16 02:41:04;;;;;;;26.10;17.85;;;7.40;99.90;;;;;;5060343;28;20038;-75
2022/04/16 02:43:29;;;;;;;21.40;17.23;;;7.40;99.90;;;;;;5076791;28;20119;-75
2022/04/16 02:48:39;;;;;;;23.75;17.67;;;7.20;99.90;;;;;;5076863;28;20079;-75
2022/04/16 02:51:05;;;;;;;24.38;18.33;;;7.20;99.90;;;;;;5076791;28;20098;-75
2022/04/16 02:53:32;;;;;;;23.20;18.52;;;7.20;99.90;;;;;;5076720;28;20119;-75
2022/04/16 02:55:57;;;;;;;22.05;17.80;;;7.20;99.90;;;;;;5076592;28;20040;-75
2022/04/16 02:58:23;;;;;;;22.23;17.98;;;7.20;99.90;;;;;;5076497;28;20048;-75
2022/04/16 03:00:49;;;;;;;24.05;18.27;;;7.10;99.90;;;;;;5059922;28;20040;-75
2022/04/16 03:03:15;;;;;;;24.33;18.13;;;7.10;99.90;;;;;;5076550;28;20040;-75
2022/04/16 03:05:41;;;;;;;23.85;19.10;;;7.10;99.90;;;;;;5076407;28;20044;-75
2022/04/16 03:08:11;;;;;;;23.40;17.30;;;7.00;99.90;;;;;;5076341;28;20081;-75
2022/04/16 03:10:37;;;;;;;23.42;18.30;;;7.00;99.90;;;;;;5076385;28;20132;-75
2022/04/16 03:13:03;;;;;;;22.15;18.23;;;7.00;99.90;;;;;;5076272;28;20122;-75
2022/04/16 03:18:12;;;;;;;24.63;18.98;;;7.00;99.90;;;;;;5076031;28;20568;-75
2022/04/16 03:20:40;;;;;;;26.25;19.75;;;7.00;99.90;;;;;;5076152;28;20064;-75
2022/04/16 03:23:06;;;;;;;25.27;19.40;;;7.00;99.90;;;;;;5076109;28;20396;-75
2022/04/16 03:25:32;;;;;;;23.88;18.83;;;7.10;99.90;;;;;;5076091;28;20028;-75
2022/04/16 03:27:58;;;;;;;26.63;20.60;;;7.10;99.90;;;;;;5076114;28;20040;-75
2022/04/16 03:30:24;;;;;;;24.52;20.25;;;7.10;99.90;;;;;;5075974;28;20093;-75
2022/04/16 03:32:51;;;;;;;27.27;19.73;;;7.20;99.90;;;;;;5059251;28;20044;-75
2022/04/16 03:35:22;;;;;;;25.35;19.85;;;7.20;99.90;;;;;;5059199;28;20439;-75
2022/04/16 03:37:47;;;;;;;29.67;20.65;;;7.20;99.90;;;;;;5076245;28;20054;-75
2022/04/16 03:40:13;;;;;;;27.25;20.45;;;7.30;99.90;;;;;;5059144;28;20040;-75
2022/04/16 03:42:49;;;;;;;26.75;21.27;;;7.30;99.90;;;;;;5076029;28;20094;-75
2022/04/16 03:45:22;;;;;;;26.10;20.70;;;7.30;99.90;;;;;;5075807;28;20040;-75
2022/04/16 03:47:49;;;;;;;28.95;21.52;;;7.30;99.90;;;;;;5075821;28;20046;-75
2022/04/16 03:50:16;;;;;;;25.98;19.77;;;7.30;99.90;;;;;;5059096;28;20047;-75
2022/04/16 03:52:43;;;;;;;26.10;20.33;;;7.30;99.90;;;;;;5059027;28;20497;-75
2022/04/16 04:00:59;;;;;;;28.05;22.10;;;7.40;99.90;;;;;;5075698;28;20455;-75
2022/04/16 04:03:25;;;;;;;26.27;21.02;;;7.40;99.90;;;;;;5075428;28;20554;-75
2022/04/16 04:05:53;;;;;;;27.05;21.33;;;7.50;99.90;;;;;;5075638;28;20428;-75
2022/04/16 04:08:20;;;;;;;28.02;21.20;;;7.50;99.90;;;;;;5058639;28;20051;-75
2022/04/16 04:10:46;;;;;;;28.30;21.52;;;7.60;99.90;;;;;;5075638;28;20101;-75
2022/04/16 04:13:13;;;;;;;24.48;20.20;;;7.60;99.90;;;;;;5075616;28;20078;-75
2022/04/16 04:15:40;;;;;;;27.70;21.83;;;7.60;99.90;;;;;;5075501;28;20551;-75
2022/04/16 04:18:06;;;;;;;27.40;21.60;;;7.70;99.90;;;;;;5075134;28;20044;-75
2022/04/16 04:20:32;;;;;;;29.58;22.00;;;7.70;99.90;;;;;;5075321;28;20032;-75
2022/04/16 04:22:57;;;;;;;25.92;21.70;;;7.70;99.90;;;;;;5075215;28;20080;-75
2022/04/16 04:25:23;;;;;;;28.52;23.15;;;7.80;99.90;;;;;;5075496;28;20130;-75
2022/04/16 04:27:49;;;;;;;27.10;21.73;;;7.80;99.90;;;;;;5058510;28;20032;-75
2022/04/16 04:30:15;;;;;;;26.13;21.45;;;7.90;99.90;;;;;;5075495;28;20048;-75
2022/04/16 04:32:41;;;;;;;26.17;20.73;;;7.90;99.90;;;;;;5075338;28;20039;-76
2022/04/16 04:35:08;;;;;;;26.20;19.15;;;7.90;99.90;;;;;;5075117;28;20511;-76
2022/04/16 04:37:34;;;;;;;24.27;18.85;;;7.90;99.90;;;;;;5058807;28;20028;-74
2022/04/16 04:39:59;;;;;;;26.02;19.17;;;8.00;99.90;;;;;;5058126;28;20040;-74
2022/04/16 04:42:27;;;;;;;22.58;18.80;;;8.00;99.90;;;;;;5075263;28;20493;-74
2022/04/16 04:44:53;;;;;;;23.63;18.45;;;8.00;99.90;;;;;;5075138;28;20086;-74
2022/04/16 04:47:19;;;;;;;23.63;17.63;;;8.00;99.90;;;;;;5077097;28;20579;-74
2022/04/16 04:49:45;;;;;;;22.73;18.13;;;8.00;99.90;;;;;;5078893;28;20122;-74
2022/04/16 04:52:19;;;;;;;23.05;18.02;;;8.00;99.90;;;;;;5078933;28;20132;-73
2022/04/16 04:54:44;;;;;;;20.83;16.88;;;8.00;99.90;;;;;;5079217;28;20071;-73
2022/04/16 04:57:10;;;;;;;23.90;18.30;;;8.00;99.90;;;;;;5078858;28;20083;-74
2022/04/16 04:59:35;;;;;;;23.48;17.08;;;8.00;99.90;;;;;;5078680;28;20067;-74
2022/04/16 05:02:01;;;;;;;24.00;18.23;;;8.00;99.90;;;;;;5078877;28;20085;-74
2022/04/16 05:04:26;;;;;;;24.70;17.42;;;8.00;99.90;;;;;;5062035;28;20043;-74
2022/04/16 05:06:52;;;;;;;24.75;19.10;;;8.00;99.90;;;;;;5078700;28;20032;-74
2022/04/16 05:09:17;;;;;;;26.60;19.70;;;8.00;99.90;;;;;;5078576;28;20039;-74
2022/04/16 05:11:43;;;;;;;21.25;17.35;;;8.10;99.90;;;;;;5078547;28;20046;-74
2022/04/16 05:14:08;;;;;;;25.45;18.38;;;8.10;99.90;;;;;;5078589;28;20036;-74
2022/04/16 05:16:34;;;;;;;25.67;18.13;;;8.10;99.90;;;;;;5078793;28;20043;-74
2022/04/16 05:18:59;;;;;;;22.35;18.75;;;8.10;99.90;;;;;;5078401;28;20051;-74
2022/04/16 05:21:25;;;;;;;23.88;17.63;;;8.10;99.90;;;;;;5078647;28;20044;-73
2022/04/16 05:23:50;;;;;;;22.75;16.30;;;8.10;99.90;;;;;;5078613;28;20036;-73
2022/04/16 05:26:16;;;;;;;21.75;16.20;;;8.10;99.90;;;;;;5078457;28;20039;-74
2022/04/16 05:28:41;;;;;;;21.35;17.10;;;8.20;99.90;;;;;;5078437;28;20042;-74
2022/04/16 05:31:07;;;;;;;22.00;16.70;;;8.20;99.90;;;;;;5061596;28;20408;-74
2022/04/16 05:36:18;;;;;;;22.58;16.45;;;8.20;99.90;;;;;;5078117;28;20044;-74
2022/04/16 05:38:44;;;;;;;19.00;13.90;;;8.30;99.90;;;;;;5077983;28;20047;-74
2022/04/16 05:41:10;;;;;;;18.10;14.88;;;8.30;99.90;;;;;;5078111;28;20036;-74
2022/04/16 05:43:35;;;;;;;18.10;13.30;;;8.30;99.90;;;;;;5077949;28;20090;-74
2022/04/16 05:46:02;;;;;;;18.40;13.82;;;8.40;99.90;;;;;;5061368;28;20044;-74
2022/04/16 05:48:27;;;;;;;17.30;13.35;;;8.40;99.90;;;;;;5061471;28;20068;-74
2022/04/16 05:50:53;;;;;;;18.20;14.10;;;8.40;99.90;;;;;;5078348;28;20463;-74
2022/04/16 05:53:20;;;;;;;17.73;13.40;;;8.50;99.90;;;;;;5061243;28;20462;-74
2022/04/16 05:55:47;;;;;;;15.65;12.15;;;8.50;99.90;;;;;;5078605;28;20400;-73
2022/04/16 05:58:13;;;;;;;16.90;12.50;;;8.50;99.90;;;;;;5077345;28;20520;-74
2022/04/16 06:00:39;;;;;;;15.95;12.38;;;8.50;99.90;;;;;;5077917;28;20086;-73
2022/04/16 06:03:06;;;;;;;16.60;13.00;;;8.60;99.90;;;;;;5077872;28;20038;-73
2022/04/16 06:05:31;;;;;;;18.13;12.57;;;8.60;99.90;;;;;;5077589;28;20041;-73
2022/04/16 06:07:58;;;;;;;17.17;12.32;;;8.70;99.90;;;;;;5077541;28;20036;-73
2022/04/16 06:10:24;;;;;;;14.88;11.38;;;8.70;99.90;;;;;;5077487;28;20122;-73
2022/04/16 06:12:49;;;;;;;18.15;12.38;;;8.70;99.90;;;;;;5077466;28;20066;-73
2022/04/16 06:15:15;;;;;;;17.23;12.18;;;8.80;99.90;;;;;;5077693;28;20039;-74
2022/04/16 06:17:40;;;;;;;14.77;11.27;;;8.80;99.90;;;;;;5077655;28;20457;-74
2022/04/16 06:20:07;;;;;;;17.13;11.65;;;8.80;99.90;;;;;;5077255;28;20455;-74
2022/04/16 06:22:33;;;;;;;15.02;11.40;;;8.80;99.90;;;;;;5060799;28;20412;-73
2022/04/16 06:24:58;;;;;;;16.13;10.85;;;8.80;99.90;;;;;;5060783;28;20039;-74
2022/04/16 06:27:24;;;;;;;15.85;11.38;;;8.80;99.90;;;;;;5077736;28;20043;-74
2022/04/16 06:29:50;;;;;;;15.32;11.30;;;8.80;99.90;;;;;;5077582;28;20032;-74
2022/04/16 06:32:15;;;;;;;19.90;11.57;;;8.90;99.90;;;;;;5077467;28;20036;-74
2022/04/16 06:34:41;;;;;;;15.00;11.50;;;8.90;99.90;;;;;;5077419;28;20131;-74
2022/04/16 06:37:06;;;;;;;16.05;11.27;;;8.90;99.90;;;;;;5077074;28;20565;-74
2022/04/16 06:39:32;;;;;;;17.23;10.77;;;8.90;99.90;;;;;;5076911;28;20036;-74
2022/04/16 06:42:01;;;;;;;16.17;11.35;;;8.90;99.90;;;;;;5076953;28;20039;-74
2022/04/16 06:44:26;;;;;;;15.52;10.88;;;9.00;99.90;;;;;;5076736;28;20044;-74
2022/04/16 06:46:54;;;;;;;17.05;11.00;;;9.00;99.90;;;;;;5076903;28;20036;-74
2022/04/16 06:49:21;;;;;;;16.55;11.00;;;9.00;99.90;;;;;;5077124;28;20048;-74
2022/04/16 06:51:47;;;;;;;17.27;11.52;;;9.20;99.90;;;;;;5077112;28;20069;-74
2022/04/16 06:54:12;;;;;;;16.52;10.30;;;9.20;99.90;;;;;;5076656;28;20044;-75
2022/04/16 06:56:38;;;;;;;15.50;10.70;;;9.20;99.90;;;;;;5077110;28;20039;-74
2022/04/16 06:59:04;;;;;;;17.38;10.90;;;9.30;99.90;;;;;;5076671;28;20560;-74
2022/04/16 07:01:30;;;;;;;16.10;10.00;;;9.30;99.90;;;;;;5076767;28;20085;-74
2022/04/16 07:03:56;;;;;;;17.77;11.05;;;9.30;99.90;;;;;;5076773;28;20450;-74
2022/04/16 07:06:21;;;;;;;19.23;9.88;;;9.30;99.90;;;;;;5077215;28;20437;-74
2022/04/16 07:08:47;;;;;;;14.70;10.65;;;9.30;99.90;;;;;;5076260;28;20044;-75
2022/04/16 07:11:12;;;;;;;15.65;10.15;;;9.40;99.90;;;;;;5076274;28;20039;-74
2022/04/16 07:13:38;;;;;;;14.13;9.93;;;9.40;99.90;;;;;;5076257;28;20043;-74
2022/04/16 07:16:03;;;;;;;13.88;9.45;;;9.50;99.90;;;;;;5059591;28;20043;-75
2022/04/16 07:18:29;;;;;;;15.10;10.88;;;9.50;99.90;;;;;;5076054;28;20040;-75
2022/04/16 07:20:55;;;;;;;12.77;9.50;;;9.60;99.90;;;;;;5076666;28;20046;-74
2022/04/16 07:23:20;;;;;;;13.75;10.40;;;9.60;99.90;;;;;;5076103;28;20412;-74
2022/04/16 07:25:46;;;;;;;14.48;9.90;;;9.70;99.90;;;;;;5076048;28;20040;-74
2022/04/16 07:28:12;;;;;;;15.90;10.10;;;9.70;99.90;;;;;;5075867;28;20122;-76
2022/04/16 07:30:38;;;;;;;13.52;9.10;;;9.80;99.90;;;;;;5075978;28;20050;-74
2022/04/16 07:33:03;;;;;;;13.43;9.13;;;9.80;99.90;;;;;;5075955;28;20040;-74
2022/04/16 07:35:29;;;;;;;13.45;8.95;;;9.90;99.90;;;;;;5075839;28;20412;-74
2022/04/16 07:37:57;;;;;;;13.70;9.32;;;10.00;99.90;;;;;;5075631;28;20068;-74
2022/04/16 07:40:24;;;;;;;11.48;8.77;;;10.10;99.90;;;;;;5076195;28;20032;-74
2022/04/16 07:42:50;;;;;;;12.55;8.88;;;10.20;99.90;;;;;;5075708;28;20040;-74
2022/04/16 07:45:15;;;;;;;12.60;8.70;;;10.20;99.90;;;;;;5075846;28;20090;-74
2022/04/16 07:47:41;;;;;;;11.18;8.38;;;10.40;99.90;;;;;;5075686;28;20503;-74
2022/04/16 07:50:07;;;;;;;12.70;8.80;;;10.50;99.90;;;;;;5075856;28;20412;-74
2022/04/16 07:52:32;;;;;;;12.60;8.85;;;10.50;99.90;;;;;;5075574;28;20036;-74
2022/04/16 07:54:58;;;;;;;12.20;8.32;;;10.60;99.90;;;;;;5075556;28;20187;-74
2022/04/16 07:57:24;;;;;;;10.00;7.90;;;10.70;99.90;;;;;;5058812;28;20047;-74
2022/04/16 07:59:49;;;;;;;11.65;8.52;;;10.80;99.90;;;;;;5075240;28;20051;-74
2022/04/16 08:02:15;;;;;;;11.27;7.57;;;10.90;99.90;;;;;;5075470;28;20047;-74
2022/04/16 08:04:41;;;;;;;10.27;7.25;;;10.90;99.90;;;;;;5058704;28;20038;-74
2022/04/16 08:07:06;;;;;;;9.25;6.78;;;11.10;99.90;;;;;;5075254;28;20093;-75
2022/04/16 08:09:32;;;;;;;10.52;6.57;;;11.20;99.90;;;;;;5075252;28;20036;-74
2022/04/16 08:11:58;;;;;;;10.82;6.80;;;11.30;99.90;;;;;;5075310;28;20040;-74
2022/04/16 08:14:25;;;;;;;10.20;6.80;;;11.50;99.90;;;;;;5058581;28;20040;-75
2022/04/16 08:16:50;;;;;;;11.82;7.05;;;11.60;99.90;;;;;;5075269;28;20040;-74
2022/04/16 08:19:16;;;;;;;9.80;5.47;;;11.60;99.90;;;;;;5075180;28;20043;-75
2022/04/16 08:21:42;;;;;;;7.85;4.75;;;11.70;99.90;;;;;;5075143;28;20474;-74
2022/04/16 08:24:22;;;;;;;7.18;4.45;;;11.80;99.90;;;;;;5075145;28;20036;-75
2022/04/16 08:26:48;;;;;;;7.57;4.05;;;11.90;99.90;;;;;;5075252;28;20075;-75
2022/04/16 08:29:14;;;;;;;5.93;3.50;;;12.00;99.90;;;;;;5075332;28;20082;-75
2022/04/16 08:31:39;;;;;;;7.50;3.55;;;12.00;99.90;;;;;;5075074;28;20036;-75
2022/04/16 08:34:05;;;;;;;6.40;3.55;;;12.30;99.90;;;;;;5075345;28;20040;-75
2022/04/16 08:36:30;;;;;;;5.35;3.10;;;12.40;99.90;;;;;;5075061;28;20548;-74
2022/04/16 08:38:56;;;;;;;5.15;2.75;;;12.40;98.80;;;;;;5058283;28;20400;-75
2022/04/16 08:41:24;;;;;;;8.38;2.70;;;12.60;98.10;;;;;;5074995;28;20409;-74
2022/04/16 08:43:56;;;;;;;4.90;2.50;;;12.70;95.80;;;;;;5074834;28;20511;-74
2022/04/16 08:46:22;;;;;;;4.68;2.80;;;12.80;91.50;;;;;;5075247;28;20039;-74
2022/04/16 08:48:48;;;;;;;5.03;2.10;;;12.90;92.60;;;;;;5075066;28;20105;-74
2022/04/16 08:51:15;;;;;;;4.25;1.98;;;13.00;89.70;;;;;;5058323;28;20051;-74
2022/04/16 08:53:42;;;;;;;3.78;2.10;;;13.10;84.80;;;;;;5075135;28;20044;-74
2022/04/16 08:56:07;;;;;;;4.15;1.98;;;13.20;82.10;;;;;;5075129;28;20054;-75
2022/04/16 08:58:33;;;;;;;2.90;1.55;;;13.40;76.30;;;;;;5074707;28;20044;-74
2022/04/16 09:00:59;;;;;;;3.90;2.05;;;13.50;73.90;;;;;;5075101;28;20040;-74
2022/04/16 09:03:38;;;;;;;3.67;1.90;;;13.50;72.20;;;;;;5074876;28;20040;-77
2022/04/16 09:06:04;;;;;;;3.95;1.95;;;13.70;68.80;;;;;;5074749;28;20072;-75
2022/04/16 09:08:34;;;;;;;4.07;1.75;;;13.80;71.20;;;;;;5074820;28;20036;-74
2022/04/16 09:11:11;;;;;;;4.60;2.08;;;13.90;70.30;;;;;;5074741;28;20043;-74
2022/04/16 09:13:49;;;;;;;3.95;1.60;;;14.10;68.80;;;;;;5074736;28;20044;-74
2022/04/16 09:16:15;;;;;;;4.45;1.40;;;14.40;64.90;;;;;;5074717;28;20079;-75
2022/04/16 09:18:58;;;;;;;1.60;1.10;;;14.50;62.90;;;;;;5074469;28;20093;-75
2022/04/16 09:21:28;;;;;;;2.13;1.20;;;14.60;56.70;;;;;;5074714;28;20507;-75
2022/04/16 09:23:59;;;;;;;3.80;1.60;;;14.60;58.00;;;;;;5074802;28;20032;-75
2022/04/16 09:26:34;;;;;;;4.78;1.80;;;14.70;57.80;;;;;;5074522;28;20090;-75
2022/04/16 09:29:14;;;;;;;4.22;1.83;;;14.80;58.40;;;;;;5074634;28;20055;-74
2022/04/16 09:31:43;;;;;;;4.53;1.50;;;14.90;56.60;;;;;;5074550;28;20040;-74
2022/04/16 09:34:16;;;;;;;3.38;1.50;;;15.10;57.40;;;;;;5077704;28;20047;-74
2022/04/16 09:36:44;;;;;;;2.20;1.30;;;15.30;56.50;;;;;;5078122;28;20579;-75
2022/04/16 09:39:13;;;;;;;3.05;1.40;;;15.50;55.90;;;;;;5078094;28;20048;-76
2022/04/16 09:41:46;;;;;;;6.80;1.48;;;15.70;55.00;;;;;;5061625;28;20028;-75
2022/04/16 09:44:20;;;;;;;3.70;1.00;;;15.80;55.50;;;;;;5077906;28;20039;-74
2022/04/16 09:46:49;;;;;;;3.03;1.27;;;15.90;52.40;;;;;;5061928;28;20040;-74
2022/04/16 09:49:16;;;;;;;3.63;1.30;;;16.10;52.50;;;;;;5077790;28;20040;-74
2022/04/16 09:51:43;;;;;;;3.63;1.52;;;16.00;52.70;;;;;;5077848;28;20411;-78
2022/04/16 09:54:10;;;;;;;2.17;1.08;;;16.10;52.30;;;;;;5083032;28;20058;-79
2022/04/16 09:56:41;;;;;;;3.25;1.30;;;16.20;52.60;;;;;;5078077;28;20567;-75
2022/04/16 09:59:09;;;;;;;2.33;1.20;;;16.30;51.00;;;;;;5060781;28;20089;-75
2022/04/16 10:01:38;;;;;;;3.13;1.10;;;16.40;50.60;;;;;;5077871;28;20036;-74
2022/04/16 10:04:03;;;;;;;2.00;1.13;;;16.50;51.30;;;;;;5077489;28;20040;-74
2022/04/16 10:06:30;;;;;;;1.90;1.10;;;16.70;50.70;;;;;;5077712;28;20036;-74
2022/04/16 10:08:57;;;;;;;2.58;1.10;;;16.80;50.10;;;;;;5077515;28;20040;-75
2022/04/16 10:14:24;;;;;;;4.85;1.10;;;17.30;50.20;;;;;;5037384;28;20080;-77
2022/04/16 10:17:02;;;;;;;7.03;1.08;;;17.40;49.20;;;;;;5060931;28;20081;-74
2022/04/16 10:19:37;;;;;;;3.95;1.13;;;17.50;48.10;;;;;;5060563;28;20081;-74
2022/04/16 10:22:03;;;;;;;4.47;0.90;;;17.70;46.90;;;;;;5077613;28;20075;-74
2022/04/16 10:24:29;;;;;;;2.53;1.05;;;17.70;47.30;;;;;;5060613;28;20444;-74
2022/04/16 10:27:04;;;;;;;1.65;0.82;;;17.70;46.00;;;;;;5077247;28;20040;-74
2022/04/16 10:29:39;;;;;;;2.97;0.80;;;17.90;45.00;;;;;;5077352;28;20048;-74
2022/04/16 10:32:16;;;;;;;2.03;0.80;;;18.00;45.10;;;;;;5077100;28;20054;-74
2022/04/16 10:34:42;;;;;;;1.65;0.80;;;18.10;44.30;;;;;;5077144;28;20050;-74
2022/04/16 10:37:19;;;;;;;1.92;1.00;;;18.10;44.80;;;;;;5076902;28;20085;-73
2022/04/16 10:39:46;;;;;;;3.08;0.70;;;18.10;42.80;;;;;;5077459;28;20109;-75
2022/04/16 10:42:12;;;;;;;2.13;0.65;;;18.10;43.40;;;;;;5076934;28;20040;-76
2022/04/16 10:44:46;;;;;;;1.20;0.50;;;18.10;42.80;;;;;;5075723;28;20050;-75
2022/04/16 10:47:16;;;;;;;2.30;0.55;;;18.30;42.50;;;;;;5077070;28;20075;-76
2022/04/16 10:49:42;;;;;;;1.88;0.63;;;18.30;40.70;;;;;;5076644;28;20115;-75
2022/04/16 10:52:18;;;;;;;0.85;0.40;;;18.20;40.40;;;;;;5076815;28;20500;-75
2022/04/16 10:54:43;;;;;;;4.45;0.50;;;18.30;39.20;;;;;;5060275;28;20508;-75
2022/04/16 10:57:10;;;;;;;2.75;0.50;;;18.30;40.60;;;;;;5076689;28;20078;-75
2022/04/16 10:59:39;;;;;;;1.13;0.30;;;18.40;40.10;;;;;;5076545;28;20058;-75
2022/04/16 11:02:15;;;;;;;2.20;0.50;;;18.30;40.00;;;;;;5076552;28;20094;-76
2022/04/16 11:04:41;;;;;;;1.88;0.40;;;18.30;39.80;;;;;;5076599;28;20047;-76
2022/04/16 11:07:08;;;;;;;1.13;0.50;;;18.20;39.30;;;;;;5076537;28;20040;-75
2022/04/16 11:09:35;;;;;;;2.38;0.50;;;18.30;39.30;;;;;;5076415;28;20377;-76
2022/04/16 11:12:07;;;;;;;2.28;0.32;;;18.40;39.20;;;;;;5076400;28;20490;-76
2022/04/16 11:14:35;;;;;;;1.50;0.47;;;18.60;38.90;;;;;;5076352;28;20043;-76
2022/04/16 11:17:03;;;;;;;1.75;0.40;;;18.50;39.00;;;;;;5076608;28;20071;-75
2022/04/16 11:19:29;;;;;;;2.83;0.45;;;18.50;37.80;;;;;;5059352;28;20622;-75
2022/04/16 11:21:54;;;;;;;2.17;0.50;;;18.60;37.30;;;;;;5076168;28;20036;-76
2022/04/16 11:24:20;;;;;;;1.05;0.30;;;18.60;36.40;;;;;;5076489;28;20063;-76
2022/04/16 11:34:58;;;;;;;2.78;0.57;;;18.50;37.80;;;;;;5076196;28;20051;-76
2022/04/16 11:37:29;;;;;;;3.90;0.40;;;18.50;37.90;;;;;;5075891;28;20456;-75
2022/04/16 11:40:00;;;;;;;1.10;0.40;;;18.50;37.20;;;;;;5059172;28;20032;-75
2022/04/16 11:42:26;;;;;;;3.20;0.90;;;18.40;36.20;;;;;;5076027;28;20036;-76
2022/04/16 11:44:52;;;;;;;1.45;0.50;;;18.40;37.50;;;;;;5075893;28;20166;-77
2022/04/16 11:47:22;;;;;;;1.98;0.60;;;18.50;37.60;;;;;;5075622;28;20040;-76
2022/04/16 11:49:53;;;;;;;3.67;0.63;;;18.70;37.50;;;;;;5075976;28;20044;-77
2022/04/16 11:52:23;;;;;;;1.10;0.50;;;18.80;37.30;;;;;;5075718;28;20523;-76
2022/04/16 11:55:13;;;;;;;3.47;0.50;;;18.90;37.80;;;;;;5059098;28;20399;-76
2022/04/16 11:57:44;;;;;;;1.20;0.43;;;19.10;36.80;;;;;;5075541;28;20039;-76
2022/04/16 12:00:11;;;;;;;1.20;0.30;;;19.30;34.70;;;;;;5075459;28;20032;-75
2022/04/16 12:02:39;;;;;;;5.53;0.47;;;19.30;34.20;;;;;;5058793;28;20114;-76
2022/04/16 12:05:09;;;;;;;9.20;0.65;;;19.20;36.00;;;;;;5058690;28;20040;-76
2022/04/16 12:07:35;;;;;;;6.18;0.60;;;19.30;35.00;;;;;;5075337;28;20040;-76
2022/04/16 12:10:03;;;;;;;4.47;0.60;;;19.30;36.00;;;;;;5075256;28;20040;-75
2022/04/16 12:12:29;;;;;;;1.50;0.60;;;19.40;34.90;;;;;;5059414;28;20471;-76
2022/04/16 12:14:55;;;;;;;1.08;0.40;;;19.50;35.80;;;;;;5058475;28;20128;-76
2022/04/16 12:17:29;;;;;;;2.10;0.50;;;19.60;35.20;;;;;;5058473;28;20097;-76
2022/04/16 12:20:06;;;;;;;4.35;0.47;;;19.80;34.20;;;;;;5075108;28;20048;-75
2022/04/16 12:22:50;;;;;;;1.27;0.50;;;19.80;33.80;;;;;;5075723;28;20121;-77
2022/04/16 12:25:18;;;;;;;1.92;0.50;;;19.80;32.30;;;;;;5075130;28;20047;-75
2022/04/16 12:27:54;;;;;;;2.40;0.60;;;19.80;33.30;;;;;;5075204;28;20036;-76
2022/04/16 12:30:25;;;;;;;2.55;0.60;;;19.80;34.20;;;;;;5058418;28;20512;-76
2022/04/16 12:32:59;;;;;;;2.13;0.50;;;19.90;35.50;;;;;;5075275;28;20042;-76
2022/04/16 12:35:30;;;;;;;3.50;0.65;;;20.00;34.70;;;;;;5075360;28;20531;-76
2022/04/16 12:37:57;;;;;;;7.50;1.00;;;20.00;35.00;;;;;;5075425;28;20044;-76
2022/04/16 12:40:23;;;;;;;3.58;0.60;;;19.90;35.90;;;;;;5074917;28;20125;-75
2022/04/16 12:42:51;;;;;;;2.65;0.55;;;20.20;36.90;;;;;;5058596;28;20043;-76
2022/04/16 12:45:17;;;;;;;3.75;0.55;;;20.40;34.70;;;;;;5074973;28;20044;-76
2022/04/16 12:47:43;;;;;;;2.65;0.50;;;20.30;34.10;;;;;;5058267;28;20125;-77
2022/04/16 12:50:09;;;;;;;2.47;0.73;;;20.40;34.30;;;;;;5074968;28;20048;-75
2022/04/16 12:52:35;;;;;;;2.80;0.57;;;20.60;33.90;;;;;;5074967;28;20047;-77
2022/04/16 12:55:01;;;;;;;2.58;0.47;;;20.60;32.40;;;;;;5075002;28;20043;-77
2022/04/16 12:57:27;;;;;;;1.70;0.45;;;20.60;32.60;;;;;;5075470;28;20043;-76
2022/04/16 12:59:53;;;;;;;8.18;0.82;;;20.40;33.60;;;;;;5074755;28;20044;-77
2022/04/16 13:02:19;;;;;;;4.00;0.50;;;20.30;33.60;;;;;;5058414;28;20040;-77
2022/04/16 13:04:44;;;;;;;3.80;0.50;;;20.30;32.90;;;;;;5075191;28;20406;-76
2022/04/16 13:07:10;;;;;;;1.88;0.50;;;20.30;32.70;;;;;;5075386;28;20043;-76